首页
METAR-TAF:

METAR-TAF

机场 :

朱麗安娜公主國際機場

荷屬聖馬丁, 荷属安的列斯

纬度: 18-03N, 经度: 063-07W, 海拔: 4米

当前天气观测

该预报发布于50分钟前的01:00 UTC
风速13节,风向东北
温度 25°C
湿度 83%
气压 1021 hPa
能见度10公里或以上
少量云层高于1700英尺
散云层高于4000英尺
小阵雨

METAR: TNCM 230100Z 04013KT 9999 -SHRA FEW017 SCT040 25/22 Q1021 NOSIG RMK A3016

时间: 21:50 (01:50 UTC)

预报

该预报发布于2小时和10分钟前的23:40 UTC
预报有效从23日的 00点(UTC)到 23日的 24点(UTC)
风速13节,风向东转东北
能見度: 10公里
少量云层高于1800英尺
散云层高于2000英尺
散云层高于8000英尺
附近有阵雨
短暂存在
从 23日的 00点(UTC)到 23日的 04点(UTC)
能見度: 8.0公里
多云层高于1800英尺
小阵雨
从 23日的 2300点(UTC)
风速13节,风向
能見度: 10公里
少量云层高于1800英尺
少量云层高于2000英尺
少量云层高于2500英尺

TAF: TNCM 222340Z 2300/2324 07013KT P6SM VCSH FEW018 SCT020 SCT080 TEMPO 2300/2304 5SM -SHRA BKN018 FM232300 08013KT P6SM FEW018 FEW020 FEW025

超过4000个机场的气象观测和天气预报(METAR&TAF报告)。

可查询的气象台以黄色和红色小点在地图上表示。

将鼠标移到小点上方,可查看气象台名称。

然后点击查看天气观测和预报。

如需切换地图:点击带黑十字的绿色按钮放大地图;点击带横线的绿色按钮缩小地图;或者点击绿色箭头查看邻近地区的地图。


METAR-TAF: